Buoy 52514

sailwx.info

Track history (hours):
 
Tides and Currents Weather Stations Pressure Air Temp Water Temp Dewpoint Dewpoint Depression Visibility Wind Speed Wind Dir Waves Ship Positions

Drifting buoy 52514

Last reported at 2014-Nov-26 12:00 UTC. Time now 2014-Nov-26 14:01 UTC.
Position N 22°43' E 133°58'.

Date/timePositionNaut miles runAvg speedWind from/ knotsBaromVisibWave heightAir tempDewpointWater temp
2014-Nov-26 12:00N 22°43' E 133°58'0 0.4
2014-Nov-26 11:00N 22°44' E 133°58'2 0.5
2014-Nov-26 08:00N 22°45' E 133°59'1 0.4
2014-Nov-26 05:00N 22°45' E 134°01'2 2.4
2014-Nov-26 04:00N 22°47' E 134°02'0 0.0
2014-Nov-26 01:00N 22°47' E 134°02'0 0.0
2014-Nov-26 00:00N 22°47' E 134°02'1 1.0
2014-Nov-25 23:00N 22°48' E 134°02'0 0.2
2014-Nov-25 21:00N 22°48' E 134°02'0 0.3
2014-Nov-25 20:00N 22°48' E 134°03'0 0.3
2014-Nov-25 19:00N 22°48' E 134°02'0 0.2
2014-Nov-25 17:00N 22°48' E 134°03'1 1.4
2014-Nov-25 16:00N 22°50' E 134°03'0 0.0
2014-Nov-25 12:00N 22°50' E 134°03'0 0.0
2014-Nov-25 11:00N 22°50' E 134°03'0 0.1
2014-Nov-25 10:00N 22°50' E 134°03'0 0.1
2014-Nov-25 09:00N 22°50' E 134°03'1 0.7
2014-Nov-25 07:00N 22°49' E 134°04'1 0.3
2014-Nov-25 04:00N 22°49' E 134°04'0 0.0
2014-Nov-25 03:00N 22°49' E 134°04'2 0.9
2014-Nov-25 01:00N 22°50' E 134°06'0 0.0
2014-Nov-25 00:00N 22°50' E 134°06'1 0.6
2014-Nov-24 23:00N 22°50' E 134°07'1 0.4
2014-Nov-24 21:00N 22°50' E 134°07'1 0.8
2014-Nov-24 20:00N 22°51' E 134°08'0 0.2
2014-Nov-24 18:00N 22°51' E 134°08'1 1.0
2014-Nov-24 17:00N 22°52' E 134°07'1 1.2
2014-Nov-24 16:00N 22°53' E 134°07'0 0.0
2014-Nov-24 15:00N 22°53' E 134°07'0 0.0
2014-Nov-24 13:00N 22°53' E 134°07'1 0.6
2014-Nov-24 12:00N 22°54' E 134°07'0 0.0
2014-Nov-24 11:00N 22°54' E 134°07'1 0.6
2014-Nov-24 10:00N 22°54' E 134°07'1 0.8
2014-Nov-24 09:00N 22°55' E 134°06'1 0.6
2014-Nov-24 08:00N 22°54' E 134°06'1 0.8
2014-Nov-24 07:00N 22°53' E 134°05'0 0.0
2014-Nov-24 06:00N 22°53' E 134°05'0 0.1
2014-Nov-24 05:00N 22°53' E 134°06'1 0.3
2014-Nov-24 03:00N 22°53' E 134°06'1 0.8
2014-Nov-24 02:00N 22°54' E 134°06'1 0.7
2014-Nov-24 00:00N 22°52' E 134°07'0 0.0
2014-Nov-23 23:00N 22°52' E 134°07'0 0.0
2014-Nov-23 22:00N 22°52' E 134°07'1 0.8
2014-Nov-23 21:00N 22°53' E 134°07'1 0.6
2014-Nov-23 20:00N 22°53' E 134°07'1 0.6
2014-Nov-23 19:00N 22°53' E 134°07'1 0.3
2014-Nov-23 17:00N 22°53' E 134°07'1 0.6
2014-Nov-23 16:00N 22°53' E 134°07'0 0.1
2014-Nov-23 15:00N 22°53' E 134°07'2 1.1
2014-Nov-23 13:00N 22°55' E 134°08'1 0.8
2014-Nov-23 12:00N 22°55' E 134°08'0 0.0
2014-Nov-23 11:00N 22°55' E 134°08'1 0.3
2014-Nov-23 09:00N 22°56' E 134°08'1 0.8
2014-Nov-23 08:00N 22°55' E 134°07'1 0.6
2014-Nov-23 07:00N 22°55' E 134°07'0 0.0
2014-Nov-23 06:00N 22°55' E 134°07'0 0.0
2014-Nov-23 05:00N 22°55' E 134°07'1 0.9
2014-Nov-23 04:00N 22°55' E 134°06'1 1.3
2014-Nov-23 03:00N 22°56' E 134°05'1 0.6
2014-Nov-23 02:00N 22°56' E 134°06'0 0.0
2014-Nov-23 01:00N 22°56' E 134°06'1 0.6
2014-Nov-23 00:00N 22°56' E 134°05'1 0.4
2014-Nov-22 21:00N 22°56' E 134°04'0 0.3
2014-Nov-22 20:00N 22°56' E 134°04'1 0.4
2014-Nov-22 18:00N 22°56' E 134°04'1 0.3
2014-Nov-22 16:00N 22°56' E 134°03'0 0.0
2014-Nov-22 12:00N 22°56' E 134°03'0 0.0
2014-Nov-22 11:00N 22°56' E 134°03'0 0.1
2014-Nov-22 09:00N 22°57' E 134°03'1 0.8
2014-Nov-22 08:00N 22°56' E 134°02'1 0.3
2014-Nov-22 05:00N 22°57' E 134°02'0 0.0
2014-Nov-22 04:00N 22°57' E 134°02'0 0.0
2014-Nov-22 03:00N 22°57' E 134°02'5 1.6
2014-Nov-22 00:00N 23°02' E 134°01'0 0.0
2014-Nov-21 23:00N 23°02' E 134°01'0 0.0
2014-Nov-21 21:00N 23°02' E 134°01'2 1.6
2014-Nov-21 20:00N 23°03' E 133°59'0 0.0
2014-Nov-21 19:00N 23°03' E 133°59'0 0.2
2014-Nov-21 18:00N 23°03' E 133°59'1 1.3
2014-Nov-21 17:00N 23°02' E 133°58'0 0.2
2014-Nov-21 16:00N 23°02' E 133°58'2 0.5
2014-Nov-21 13:00N 23°04' E 133°57'0 0.0
2014-Nov-21 12:00N 23°04' E 133°57'2 1.8
2014-Nov-21 11:00N 23°04' E 133°55'0 0.0
2014-Nov-21 10:00N 23°04' E 133°55'1 1.3
2014-Nov-21 09:00N 23°04' E 133°54'1 0.6
2014-Nov-21 08:00N 23°04' E 133°54'1 1.1
2014-Nov-21 07:00N 23°04' E 133°53'0 0.0
2014-Nov-21 06:00N 23°04' E 133°53'1 0.6
2014-Nov-21 05:00N 23°04' E 133°52'1 0.6
2014-Nov-21 04:00N 23°04' E 133°52'0 0.0
2014-Nov-21 03:00N 23°04' E 133°52'2 1.6
2014-Nov-21 02:00N 23°05' E 133°53'0 0.0
2014-Nov-21 01:00N 23°05' E 133°53'2 1.8
2014-Nov-21 00:00N 23°07' E 133°53'0 0.0
2014-Nov-20 23:00N 23°07' E 133°53'2 0.6
2014-Nov-20 20:00N 23°09' E 133°53'1 1.3
2014-Nov-20 19:00N 23°10' E 133°52'2 1.6
2014-Nov-20 18:00N 23°11' E 133°51'0 0.0
2014-Nov-20 17:00N 23°11' E 133°51'0 0.0
2014-Nov-20 16:00N 23°11' E 133°51'5 1.2
2014-Nov-20 12:00N 23°14' E 133°47'1 0.6
2014-Nov-20 11:00N 23°14' E 133°46'2 1.8
2014-Nov-20 10:00N 23°15' E 133°44'1 0.6
2014-Nov-20 09:00N 23°15' E 133°44'1 0.3
2014-Nov-20 07:00N 23°15' E 133°43'1 1.2
2014-Nov-20 06:00N 23°14' E 133°43'2 1.8
2014-Nov-20 05:00N 23°16' E 133°43'1 1.3
2014-Nov-20 04:00N 23°17' E 133°43'2 1.5
2014-Nov-20 03:00N 23°15' E 133°43'2 1.0
2014-Nov-20 01:00N 23°17' E 133°42'0 0.1
2014-Nov-19 23:00N 23°17' E 133°42'2 0.9
2014-Nov-19 21:00N 23°19' E 133°41'1 1.3
2014-Nov-19 20:00N 23°20' E 133°41'2 1.6
2014-Nov-19 19:00N 23°21' E 133°40'0 0.0
2014-Nov-19 18:00N 23°21' E 133°40'0 0.0
2014-Nov-19 17:00N 23°21' E 133°40'0 0.0
2014-Nov-19 16:00N 23°21' E 133°40'3 1.1
2014-Nov-19 13:00N 23°23' E 133°37'1 1.1
2014-Nov-19 12:00N 23°23' E 133°35'1 0.7
2014-Nov-19 11:00N 23°23' E 133°35'1 0.7
2014-Nov-19 10:00N 23°23' E 133°34'1 0.7
2014-Nov-19 08:00N 23°23' E 133°32'0 0.0
2014-Nov-19 07:00N 23°23' E 133°32'1 0.6
2014-Nov-19 06:00N 23°24' E 133°32'1 1.3
2014-Nov-19 05:00N 23°25' E 133°31'0 0.0
2014-Nov-19 04:00N 23°25' E 133°31'4 1.3
2014-Nov-19 01:00N 23°26' E 133°28'0 0.0
2014-Nov-19 00:00N 23°26' E 133°28'0 0.0
2014-Nov-18 23:00N 23°26' E 133°28'0 0.0
2014-Nov-18 21:00N 23°26' E 133°28'6 5.6
2014-Nov-18 20:00N 23°27' E 133°22'0 0.2
2014-Nov-18 19:00N 23°27' E 133°22'0 0.1
2014-Nov-18 17:00N 23°27' E 133°22'0 0.0
2014-Nov-18 16:00N 23°27' E 133°22'0 0.1
2014-Nov-18 13:00N 23°27' E 133°22'1 0.3
2014-Nov-18 11:00N 23°27' E 133°21'2 1.7
2014-Nov-18 10:00N 23°27' E 133°19'0 0.0
2014-Nov-18 09:00N 23°27' E 133°19'1 0.6
2014-Nov-18 08:00N 23°27' E 133°20'4 4.1
2014-Nov-18 07:00N 23°29' E 133°16'0 0.0
2014-Nov-18 06:00N 23°29' E 133°16'0 0.0
2014-Nov-18 04:00N 23°29' E 133°16'0 0.0
2014-Nov-18 02:00N 23°29' E 133°16'4 0.7
2014-Nov-17 20:00N 23°30' E 133°11'1 1.1
2014-Nov-17 19:00N 23°30' E 133°10'1 1.4
2014-Nov-17 18:00N 23°30' E 133°09'0 0.4
2014-Nov-17 17:00N 23°30' E 133°09'0 0.4
2014-Nov-17 16:00N 23°30' E 133°09'6 1.9
2014-Nov-17 13:00N 23°31' E 133°02'0 0.0
2014-Nov-17 12:00N 23°31' E 133°02'4 1.3
2014-Nov-17 09:00N 23°30' E 132°58'1 1.3
2014-Nov-17 08:00N 23°29' E 132°57'1 0.6
2014-Nov-17 07:00N 23°29' E 132°56'2 1.1
2014-Nov-17 05:00N 23°29' E 132°54'0 0.0
2014-Nov-17 04:00N 23°29' E 132°54'7 1.1
2014-Nov-16 22:00N 23°32' E 132°47'0 0.0
2014-Nov-16 21:00N 23°32' E 132°47'1 0.8
2014-Nov-16 20:00N 23°32' E 132°47'0 0.0
2014-Nov-16 19:00N 23°32' E 132°47'2 2.2
2014-Nov-16 18:00N 23°34' E 132°45'0 0.1
2014-Nov-16 17:00N 23°34' E 132°45'6 1.2
2014-Nov-16 12:00N 23°36' E 132°39'  
Track history (hours):
 
Tides and Currents Weather Stations Pressure Air Temp Water Temp Dewpoint Dewpoint Depression Visibility Wind Speed Wind Dir Waves Ship Positions

Drifting buoy 52514

Last reported at 2014-Nov-26 12:00 UTC. Time now 2014-Nov-26 14:01 UTC.
Position N 22°43' E 133°58'.

Date/timePositionNaut miles runAvg speedWind from/ knotsBaromVisibWave heightAir tempDewpointWater temp
2014-Nov-26 12:00N 22°43' E 133°58'0 0.4
2014-Nov-26 11:00N 22°44' E 133°58'2 0.5
2014-Nov-26 08:00N 22°45' E 133°59'1 0.4
2014-Nov-26 05:00N 22°45' E 134°01'2 2.4
2014-Nov-26 04:00N 22°47' E 134°02'0 0.0
2014-Nov-26 01:00N 22°47' E 134°02'0 0.0
2014-Nov-26 00:00N 22°47' E 134°02'1 1.0
2014-Nov-25 23:00N 22°48' E 134°02'0 0.2
2014-Nov-25 21:00N 22°48' E 134°02'0 0.3
2014-Nov-25 20:00N 22°48' E 134°03'0 0.3
2014-Nov-25 19:00N 22°48' E 134°02'0 0.2
2014-Nov-25 17:00N 22°48' E 134°03'1 1.4
2014-Nov-25 16:00N 22°50' E 134°03'0 0.0
2014-Nov-25 12:00N 22°50' E 134°03'0 0.0
2014-Nov-25 11:00N 22°50' E 134°03'0 0.1
2014-Nov-25 10:00N 22°50' E 134°03'0 0.1
2014-Nov-25 09:00N 22°50' E 134°03'1 0.7
2014-Nov-25 07:00N 22°49' E 134°04'1 0.3
2014-Nov-25 04:00N 22°49' E 134°04'0 0.0
2014-Nov-25 03:00N 22°49' E 134°04'2 0.9
2014-Nov-25 01:00N 22°50' E 134°06'0 0.0
2014-Nov-25 00:00N 22°50' E 134°06'1 0.6
2014-Nov-24 23:00N 22°50' E 134°07'1 0.4
2014-Nov-24 21:00N 22°50' E 134°07'1 0.8
2014-Nov-24 20:00N 22°51' E 134°08'0 0.2
2014-Nov-24 18:00N 22°51' E 134°08'1 1.0
2014-Nov-24 17:00N 22°52' E 134°07'1 1.2
2014-Nov-24 16:00N 22°53' E 134°07'0 0.0
2014-Nov-24 15:00N 22°53' E 134°07'0 0.0
2014-Nov-24 13:00N 22°53' E 134°07'1 0.6
2014-Nov-24 12:00N 22°54' E 134°07'0 0.0
2014-Nov-24 11:00N 22°54' E 134°07'1 0.6
2014-Nov-24 10:00N 22°54' E 134°07'1 0.8
2014-Nov-24 09:00N 22°55' E 134°06'1 0.6
2014-Nov-24 08:00N 22°54' E 134°06'1 0.8
2014-Nov-24 07:00N 22°53' E 134°05'0 0.0
2014-Nov-24 06:00N 22°53' E 134°05'0 0.1
2014-Nov-24 05:00N 22°53' E 134°06'1 0.3
2014-Nov-24 03:00N 22°53' E 134°06'1 0.8
2014-Nov-24 02:00N 22°54' E 134°06'1 0.7
2014-Nov-24 00:00N 22°52' E 134°07'0 0.0
2014-Nov-23 23:00N 22°52' E 134°07'0 0.0
2014-Nov-23 22:00N 22°52' E 134°07'1 0.8
2014-Nov-23 21:00N 22°53' E 134°07'1 0.6
2014-Nov-23 20:00N 22°53' E 134°07'1 0.6
2014-Nov-23 19:00N 22°53' E 134°07'1 0.3
2014-Nov-23 17:00N 22°53' E 134°07'1 0.6
2014-Nov-23 16:00N 22°53' E 134°07'0 0.1
2014-Nov-23 15:00N 22°53' E 134°07'2 1.1
2014-Nov-23 13:00N 22°55' E 134°08'1 0.8
2014-Nov-23 12:00N 22°55' E 134°08'0 0.0
2014-Nov-23 11:00N 22°55' E 134°08'1 0.3
2014-Nov-23 09:00N 22°56' E 134°08'1 0.8
2014-Nov-23 08:00N 22°55' E 134°07'1 0.6
2014-Nov-23 07:00N 22°55' E 134°07'0 0.0
2014-Nov-23 06:00N 22°55' E 134°07'0 0.0
2014-Nov-23 05:00N 22°55' E 134°07'1 0.9
2014-Nov-23 04:00N 22°55' E 134°06'1 1.3
2014-Nov-23 03:00N 22°56' E 134°05'1 0.6
2014-Nov-23 02:00N 22°56' E 134°06'0 0.0
2014-Nov-23 01:00N 22°56' E 134°06'1 0.6
2014-Nov-23 00:00N 22°56' E 134°05'1 0.4
2014-Nov-22 21:00N 22°56' E 134°04'0 0.3
2014-Nov-22 20:00N 22°56' E 134°04'1 0.4
2014-Nov-22 18:00N 22°56' E 134°04'1 0.3
2014-Nov-22 16:00N 22°56' E 134°03'0 0.0
2014-Nov-22 12:00N 22°56' E 134°03'0 0.0
2014-Nov-22 11:00N 22°56' E 134°03'0 0.1
2014-Nov-22 09:00N 22°57' E 134°03'1 0.8
2014-Nov-22 08:00N 22°56' E 134°02'1 0.3
2014-Nov-22 05:00N 22°57' E 134°02'0 0.0
2014-Nov-22 04:00N 22°57' E 134°02'0 0.0
2014-Nov-22 03:00N 22°57' E 134°02'5 1.6
2014-Nov-22 00:00N 23°02' E 134°01'0 0.0
2014-Nov-21 23:00N 23°02' E 134°01'0 0.0
2014-Nov-21 21:00N 23°02' E 134°01'2 1.6
2014-Nov-21 20:00N 23°03' E 133°59'0 0.0
2014-Nov-21 19:00N 23°03' E 133°59'0 0.2
2014-Nov-21 18:00N 23°03' E 133°59'1 1.3
2014-Nov-21 17:00N 23°02' E 133°58'0 0.2
2014-Nov-21 16:00N 23°02' E 133°58'2 0.5
2014-Nov-21 13:00N 23°04' E 133°57'0 0.0
2014-Nov-21 12:00N 23°04' E 133°57'2 1.8
2014-Nov-21 11:00N 23°04' E 133°55'0 0.0
2014-Nov-21 10:00N 23°04' E 133°55'1 1.3
2014-Nov-21 09:00N 23°04' E 133°54'1 0.6
2014-Nov-21 08:00N 23°04' E 133°54'1 1.1
2014-Nov-21 07:00N 23°04' E 133°53'0 0.0
2014-Nov-21 06:00N 23°04' E 133°53'1 0.6
2014-Nov-21 05:00N 23°04' E 133°52'1 0.6
2014-Nov-21 04:00N 23°04' E 133°52'0 0.0
2014-Nov-21 03:00N 23°04' E 133°52'2 1.6
2014-Nov-21 02:00N 23°05' E 133°53'0 0.0
2014-Nov-21 01:00N 23°05' E 133°53'2 1.8
2014-Nov-21 00:00N 23°07' E 133°53'0 0.0
2014-Nov-20 23:00N 23°07' E 133°53'2 0.6
2014-Nov-20 20:00N 23°09' E 133°53'1 1.3
2014-Nov-20 19:00N 23°10' E 133°52'2 1.6
2014-Nov-20 18:00N 23°11' E 133°51'0 0.0
2014-Nov-20 17:00N 23°11' E 133°51'0 0.0
2014-Nov-20 16:00N 23°11' E 133°51'5 1.2
2014-Nov-20 12:00N 23°14' E 133°47'1 0.6
2014-Nov-20 11:00N 23°14' E 133°46'2 1.8
2014-Nov-20 10:00N 23°15' E 133°44'1 0.6
2014-Nov-20 09:00N 23°15' E 133°44'1 0.3
2014-Nov-20 07:00N 23°15' E 133°43'1 1.2
2014-Nov-20 06:00N 23°14' E 133°43'2 1.8
2014-Nov-20 05:00N 23°16' E 133°43'1 1.3
2014-Nov-20 04:00N 23°17' E 133°43'2 1.5
2014-Nov-20 03:00N 23°15' E 133°43'2 1.0
2014-Nov-20 01:00N 23°17' E 133°42'0 0.1
2014-Nov-19 23:00N 23°17' E 133°42'2 0.9
2014-Nov-19 21:00N 23°19' E 133°41'1 1.3
2014-Nov-19 20:00N 23°20' E 133°41'2 1.6
2014-Nov-19 19:00N 23°21' E 133°40'0 0.0
2014-Nov-19 18:00N 23°21' E 133°40'0 0.0
2014-Nov-19 17:00N 23°21' E 133°40'0 0.0
2014-Nov-19 16:00N 23°21' E 133°40'3 1.1
2014-Nov-19 13:00N 23°23' E 133°37'1 1.1
2014-Nov-19 12:00N 23°23' E 133°35'1 0.7
2014-Nov-19 11:00N 23°23' E 133°35'1 0.7
2014-Nov-19 10:00N 23°23' E 133°34'1 0.7
2014-Nov-19 08:00N 23°23' E 133°32'0 0.0
2014-Nov-19 07:00N 23°23' E 133°32'1 0.6
2014-Nov-19 06:00N 23°24' E 133°32'1 1.3
2014-Nov-19 05:00N 23°25' E 133°31'0 0.0
2014-Nov-19 04:00N 23°25' E 133°31'4 1.3
2014-Nov-19 01:00N 23°26' E 133°28'0 0.0
2014-Nov-19 00:00N 23°26' E 133°28'0 0.0
2014-Nov-18 23:00N 23°26' E 133°28'0 0.0
2014-Nov-18 21:00N 23°26' E 133°28'6 5.6
2014-Nov-18 20:00N 23°27' E 133°22'0 0.2
2014-Nov-18 19:00N 23°27' E 133°22'0 0.1
2014-Nov-18 17:00N 23°27' E 133°22'0 0.0
2014-Nov-18 16:00N 23°27' E 133°22'0 0.1
2014-Nov-18 13:00N 23°27' E 133°22'1 0.3
2014-Nov-18 11:00N 23°27' E 133°21'2 1.7
2014-Nov-18 10:00N 23°27' E 133°19'0 0.0
2014-Nov-18 09:00N 23°27' E 133°19'1 0.6
2014-Nov-18 08:00N 23°27' E 133°20'4 4.1
2014-Nov-18 07:00N 23°29' E 133°16'0 0.0
2014-Nov-18 06:00N 23°29' E 133°16'0 0.0
2014-Nov-18 04:00N 23°29' E 133°16'0 0.0
2014-Nov-18 02:00N 23°29' E 133°16'4 0.7
2014-Nov-17 20:00N 23°30' E 133°11'1 1.1
2014-Nov-17 19:00N 23°30' E 133°10'1 1.4
2014-Nov-17 18:00N 23°30' E 133°09'0 0.4
2014-Nov-17 17:00N 23°30' E 133°09'0 0.4
2014-Nov-17 16:00N 23°30' E 133°09'6 1.9
2014-Nov-17 13:00N 23°31' E 133°02'0 0.0
2014-Nov-17 12:00N 23°31' E 133°02'4 1.3
2014-Nov-17 09:00N 23°30' E 132°58'1 1.3
2014-Nov-17 08:00N 23°29' E 132°57'1 0.6
2014-Nov-17 07:00N 23°29' E 132°56'2 1.1
2014-Nov-17 05:00N 23°29' E 132°54'0 0.0
2014-Nov-17 04:00N 23°29' E 132°54'7 1.1
2014-Nov-16 22:00N 23°32' E 132°47'0 0.0
2014-Nov-16 21:00N 23°32' E 132°47'1 0.8
2014-Nov-16 20:00N 23°32' E 132°47'0 0.0
2014-Nov-16 19:00N 23°32' E 132°47'2 2.2
2014-Nov-16 18:00N 23°34' E 132°45'0 0.1
2014-Nov-16 17:00N 23°34' E 132°45'6 1.2
2014-Nov-16 12:00N 23°36' E 132°39'  

Dump ship's entire track history